Time;durP1;ratioP1;P1;durP2;ratioP2;P2;SDS_P1;SDS_P2;PMS_P1;PMS_P2;Temp;Humidity;BMP_temperature;BMP_pressure;BME280_temperature;BME280_humidity;BME280_pressure;Samples;Min_cycle;Max_cycle;Signal;HPM_P1;HPM_P2
2022/03/22 00:01:27;;;;;;;1.42;0.60;;;;;;;-0.81;55.41;99708.03;4921717;29;20040;-81
2022/03/22 00:03:53;;;;;;;0.98;0.68;;;;;;;-0.81;55.90;99697.53;4921278;29;20047;-80
2022/03/22 00:06:19;;;;;;;0.68;0.68;;;;;;;-0.71;55.58;99703.38;4922769;29;20484;-80
2022/03/22 00:08:45;;;;;;;2.33;0.65;;;;;;;-0.74;55.64;99714.81;4922421;29;20047;-81
2022/03/22 00:11:12;;;;;;;0.93;0.60;;;;;;;-0.78;56.26;99713.19;4920157;29;20377;-78
2022/03/22 00:13:43;;;;;;;0.50;0.50;;;;;;;-0.89;56.15;99725.75;4920058;29;20086;-79
2022/03/22 00:16:09;;;;;;;;;;;;;;;-0.81;56.36;99734.25;4935000;29;20499;-79
2022/03/22 00:18:38;;;;;;;0.82;0.63;;;;;;;-0.81;56.39;99729.03;4933986;29;20307;-80
2022/03/22 00:21:06;;;;;;;10.82;0.90;;;;;;;-0.81;56.43;99734.25;4919345;29;20492;-79
2022/03/22 00:23:34;;;;;;;3.30;0.68;;;;;;;-0.83;56.21;99746.59;4919514;29;20104;-79
2022/03/22 00:26:00;;;;;;;0.47;0.47;;;;;;;-0.83;56.27;99746.59;4887146;29;20071;-79
2022/03/22 00:28:26;;;;;;;0.70;0.55;;;;;;;-0.86;56.20;99746.66;4934232;29;20051;-80
2022/03/22 00:30:54;;;;;;;1.52;0.80;;;;;;;-0.82;56.53;99753.56;4933513;29;20099;-80
2022/03/22 00:33:20;;;;;;;3.70;1.42;;;;;;;-0.84;56.29;99765.84;4934482;29;20530;-80
2022/03/22 00:35:46;;;;;;;1.17;0.70;;;;;;;-0.99;56.66;99763.63;4918237;29;20052;-80
2022/03/22 00:38:18;;;;;;;1.80;0.70;;;;;;;-1.03;56.85;99772.47;4902784;29;20051;-81
2022/03/22 00:40:46;;;;;;;2.00;0.70;;;;;;;-1.10;57.35;99768.28;4918282;29;20044;-81
2022/03/22 00:43:12;;;;;;;0.60;0.60;;;;;;;-1.09;57.15;99781.38;4902353;29;20048;-80
2022/03/22 00:45:39;;;;;;;1.75;0.75;;;;;;;-1.11;57.17;99777.94;4917848;29;20055;-79
2022/03/22 00:48:08;;;;;;;1.00;0.80;;;;;;;-1.11;57.67;99792.81;4918587;29;20452;-80
2022/03/22 00:50:38;;;;;;;0.60;0.60;;;;;;;-1.01;57.03;99773.31;4927298;29;20047;-82
2022/03/22 00:53:07;;;;;;;3.35;0.70;;;;;;;-1.04;57.36;99778.63;4924840;29;20044;-79
2022/03/22 00:55:34;;;;;;;1.75;0.75;;;;;;;-1.00;57.30;99790.78;4924486;29;20146;-79
2022/03/22 00:58:00;;;;;;;0.57;0.57;;;;;;;-1.10;57.07;99792.75;4924296;29;20064;-78
2022/03/22 01:00:27;;;;;;;0.85;0.77;;;;;;;-1.06;57.41;99798.78;4924019;29;20036;-78
2022/03/22 01:02:56;;;;;;;3.33;0.73;;;;;;;-1.10;57.02;99798.00;4908664;29;20133;-79
2022/03/22 01:05:25;;;;;;;0.88;0.77;;;;;;;-1.12;57.11;99806.84;4907234;29;20048;-80
2022/03/22 01:07:57;;;;;;;1.03;0.83;;;;;;;-1.14;57.31;99803.38;4909180;29;20059;-80
2022/03/22 01:10:25;;;;;;;1.05;0.70;;;;;;;-1.15;57.36;99809.53;4923537;29;20288;-80
2022/03/22 01:12:51;;;;;;;2.83;1.20;;;;;;;-1.26;57.19;99800.16;4918751;29;20051;-80
2022/03/22 01:15:23;;;;;;;2.42;1.73;;;;;;;-1.29;58.02;99815.09;4933854;29;20103;-80
2022/03/22 01:17:54;;;;;;;6.85;1.00;;;;;;;-1.31;57.90;99812.53;4888840;29;20423;-80
2022/03/22 01:20:22;;;;;;;1.23;1.10;;;;;;;-1.38;57.89;99831.94;4919500;29;20112;-79
2022/03/22 01:22:49;;;;;;;1.48;0.77;;;;;;;-1.35;58.26;99821.38;4917203;29;20036;-82
2022/03/22 01:25:18;;;;;;;1.95;0.77;;;;;;;-1.38;58.14;99831.06;4945345;29;20488;-79
2022/03/22 01:27:46;;;;;;;1.42;0.80;;;;;;;-1.34;58.23;99830.97;4932835;29;20044;-79
2022/03/22 01:30:14;;;;;;;1.48;0.93;;;;;;;-1.40;58.27;99812.72;4916793;29;20055;-80
2022/03/22 01:32:40;;;;;;;2.88;1.00;;;;;;;-1.43;58.13;99823.28;4918021;29;20048;-81
2022/03/22 01:35:09;;;;;;;0.80;0.80;;;;;;;-1.59;58.72;99833.28;4918037;29;20054;-80
2022/03/22 01:37:36;;;;;;;1.30;0.80;;;;;;;-1.67;58.80;99831.72;4916848;29;20131;-79
2022/03/22 01:40:04;;;;;;;1.63;0.85;;;;;;;-1.75;59.18;99835.38;4948224;29;20168;-79
2022/03/22 01:42:30;;;;;;;1.02;0.70;;;;;;;-1.79;59.21;99836.34;4917859;29;20048;-80
2022/03/22 01:44:56;;;;;;;0.75;0.63;;;;;;;-1.89;59.50;99840.06;4948944;29;20391;-79
2022/03/22 01:47:25;;;;;;;0.85;0.75;;;;;;;-1.92;59.37;99842.72;4932310;29;20050;-79
2022/03/22 01:49:52;;;;;;;3.60;0.88;;;;;;;-2.04;59.95;99850.84;4931776;29;20492;-80
2022/03/22 01:52:21;;;;;;;8.27;0.93;;;;;;;-2.06;60.15;99852.66;4948226;28;20051;-79
2022/03/22 01:54:50;;;;;;;3.13;0.90;;;;;;;-2.19;59.94;99852.03;4932021;29;20055;-79
2022/03/22 01:57:20;;;;;;;1.25;0.90;;;;;;;-2.30;60.48;99860.09;4917638;29;20052;-79
2022/03/22 01:59:47;;;;;;;0.70;0.70;;;;;;;-2.38;61.07;99869.84;4948061;29;20139;-80
2022/03/22 02:07:50;;;;;;;1.48;1.00;;;;;;;-2.44;61.07;99890.94;4932465;29;20047;-80
2022/03/22 02:10:18;;;;;;;0.85;0.68;;;;;;;-2.43;61.18;99892.66;4948433;29;20079;-79
2022/03/22 02:12:44;;;;;;;1.23;0.90;;;;;;;-2.45;61.30;99899.66;4917459;29;20056;-79
2022/03/22 02:15:12;;;;;;;2.60;1.35;;;;;;;-2.50;61.34;99889.28;4948138;29;20058;-80
2022/03/22 02:17:45;;;;;;;1.30;0.90;;;;;;;-2.57;61.79;99892.03;4917477;29;20106;-79
2022/03/22 02:20:13;;;;;;;2.15;1.08;;;;;;;-2.58;61.49;99892.94;4916185;29;20138;-81
2022/03/22 02:22:52;;;;;;;2.28;1.05;;;;;;;-2.60;61.60;99902.56;4932087;29;20055;-80
2022/03/22 02:25:21;;;;;;;5.45;0.90;;;;;;;-2.58;61.95;99906.03;4947945;28;20064;-79
2022/03/22 02:27:52;;;;;;;1.05;1.00;;;;;;;-2.64;62.20;99900.88;4915846;29;20067;-80
2022/03/22 02:30:19;;;;;;;0.70;0.70;;;;;;;-2.74;62.32;99924.59;4931789;29;20507;-80
2022/03/22 02:32:53;;;;;;;1.98;1.33;;;;;;;-2.74;62.11;99916.75;4931488;29;20076;-80
2022/03/22 02:35:19;;;;;;;4.05;1.38;;;;;;;-2.72;62.03;99914.97;4931770;29;20044;-80
2022/03/22 02:37:46;;;;;;;10.43;1.40;;;;;;;-2.74;62.15;99924.59;4916576;29;20075;-79
2022/03/22 02:40:14;;;;;;;2.33;1.13;;;;;;;-2.83;62.58;99932.59;4946864;29;20051;-79
2022/03/22 02:42:45;;;;;;;3.03;1.30;;;;;;;-2.87;62.54;99938.75;4947255;29;20070;-79
2022/03/22 02:45:12;;;;;;;1.83;1.30;;;;;;;-2.84;62.63;99936.09;4931669;29;20480;-79
2022/03/22 02:47:42;;;;;;;1.17;1.08;;;;;;;-2.92;62.25;99942.34;4931371;29;20051;-79
2022/03/22 02:50:09;;;;;;;1.85;1.30;;;;;;;-2.95;62.54;99953.72;4899969;29;20514;-81
2022/03/22 02:52:37;;;;;;;3.65;1.33;;;;;;;-2.95;62.56;99951.97;4916662;29;20067;-80
2022/03/22 02:55:06;;;;;;;1.38;1.23;;;;;;;-2.93;62.43;99951.97;4931546;29;20048;-80
2022/03/22 02:57:33;;;;;;;1.70;1.00;;;;;;;-2.82;61.94;99954.38;4931718;29;20040;-81
2022/03/22 02:59:59;;;;;;;2.03;0.90;;;;;;;-2.89;62.17;99973.69;4947500;29;20048;-79
2022/03/22 03:02:25;;;;;;;0.77;0.77;;;;;;;-2.96;62.26;99952.84;4947159;29;20504;-79
2022/03/22 03:04:50;;;;;;;1.40;1.13;;;;;;;-2.90;62.39;99962.34;4947309;29;20515;-79
2022/03/22 03:07:16;;;;;;;1.65;1.10;;;;;;;-2.87;62.11;99954.44;4916861;29;20115;-79
2022/03/22 03:09:42;;;;;;;1.00;1.00;;;;;;;-2.84;62.43;99962.25;4947466;29;20070;-88
2022/03/22 03:12:09;;;;;;;1.20;1.10;;;;;;;-2.86;61.97;99958.78;4948018;29;20048;-79
2022/03/22 03:14:40;;;;;;;1.10;1.00;;;;;;;-2.85;62.23;99968.38;4931295;29;20143;-80
2022/03/22 03:17:06;;;;;;;2.22;1.02;;;;;;;-2.80;62.39;99963.94;4916870;29;20051;-81
2022/03/22 03:19:32;;;;;;;2.83;1.40;;;;;;;-2.78;62.09;99963.94;4916459;29;20051;-82
2022/03/22 03:21:58;;;;;;;1.48;1.05;;;;;;;-2.42;63.78;99970.28;4931371;29;20156;-81
2022/03/22 03:24:24;;;;;;;3.05;1.05;;;;;;;-2.49;61.65;99987.00;4946931;29;20143;-80
2022/03/22 03:26:50;;;;;;;1.30;1.20;;;;;;;-2.50;61.32;99966.94;4931364;29;20491;-80
2022/03/22 03:29:16;;;;;;;6.47;1.17;;;;;;;-2.46;61.26;99968.63;4916617;29;20044;-79
2022/03/22 03:31:43;;;;;;;3.17;1.27;;;;;;;-2.44;61.23;99979.94;4917838;29;20048;-81
2022/03/22 03:34:09;;;;;;;1.17;1.08;;;;;;;-2.56;61.65;99974.88;4963316;28;20519;-81
2022/03/22 03:36:36;;;;;;;1.00;0.90;;;;;;;-2.38;62.74;99989.44;4934847;29;20040;-75
2022/03/22 03:39:04;;;;;;;3.08;1.25;;;;;;;-2.17;63.72;99982.97;4954980;28;20048;-76
2022/03/22 03:47:11;;;;;;;1.42;1.10;;;;;;;-2.16;60.77;100003.03;4935137;29;20083;-83
2022/03/22 03:49:49;;;;;;;1.17;0.93;;;;;;;-2.26;60.91;100003.19;4923212;29;20074;-83
2022/03/22 03:52:21;;;;;;;4.95;1.52;;;;;;;-2.38;61.33;100019.09;4969294;28;20074;-80
2022/03/22 03:54:48;;;;;;;2.75;1.50;;;;;;;-2.40;61.92;100005.19;4922142;29;20086;-81
2022/03/22 03:57:15;;;;;;;6.20;1.60;;;;;;;-2.39;61.58;100020.00;4937998;29;20054;-81
2022/03/22 03:59:41;;;;;;;2.10;1.38;;;;;;;-2.42;61.66;100017.41;4938223;29;20138;-85
2022/03/22 04:02:08;;;;;;;21.90;1.55;;;;;;;-2.43;61.50;100022.69;4936745;29;20048;-78
2022/03/22 04:04:38;;;;;;;2.05;1.23;;;;;;;-2.47;62.17;100029.72;4938443;29;20047;-81
2022/03/22 04:07:08;;;;;;;2.05;1.23;;;;;;;-2.51;62.23;100022.81;4969355;28;20051;-93
2022/03/22 04:09:35;;;;;;;2.90;1.73;;;;;;;-2.37;61.84;100039.16;4929459;29;20044;-86
2022/03/22 04:12:04;;;;;;;3.83;1.45;;;;;;;-2.39;62.02;100043.56;4937839;29;20047;-87
2022/03/22 04:14:30;;;;;;;2.40;1.20;;;;;;;-2.25;61.61;100038.97;4938126;29;20464;-82
2022/03/22 04:16:56;;;;;;;1.30;1.20;;;;;;;-2.18;61.50;100036.22;4968367;28;20393;-82
2022/03/22 04:19:22;;;;;;;3.72;1.45;;;;;;;-2.05;61.01;100030.75;4969069;28;20118;-82
2022/03/22 04:21:48;;;;;;;2.58;1.27;;;;;;;-2.04;61.31;100036.84;4921168;29;20135;-83
2022/03/22 04:24:15;;;;;;;1.80;1.38;;;;;;;-1.89;61.18;100041.81;4969454;28;20138;-86
2022/03/22 04:26:43;;;;;;;1.63;1.35;;;;;;;-1.78;60.62;100021.50;4953206;29;20143;-80
2022/03/22 04:34:41;;;;;;;2.15;1.25;;;;;;;-1.59;60.20;100027.25;4939511;29;20067;-83
2022/03/22 04:37:10;;;;;;;1.73;1.55;;;;;;;-1.62;60.76;100031.69;4969086;28;20078;-81
2022/03/22 04:39:36;;;;;;;2.67;1.70;;;;;;;-1.52;60.40;100028.00;4936596;29;20137;-81
2022/03/22 04:42:04;;;;;;;5.90;1.88;;;;;;;-1.31;59.85;100024.97;4953395;28;20623;-78
2022/03/22 04:44:30;;;;;;;5.47;1.80;;;;;;;-1.13;59.62;100025.44;4951487;29;20182;-80
2022/03/22 04:46:57;;;;;;;2.67;1.80;;;;;;;-1.01;59.30;100036.56;4929668;29;20044;-78
2022/03/22 04:49:25;;;;;;;3.63;1.92;;;;;;;-1.00;58.94;100047.91;4919165;29;20044;-81
2022/03/22 04:57:20;;;;;;;6.70;2.40;;;;;;;-1.12;59.23;100048.19;4918263;29;20524;-80
2022/03/22 04:59:47;;;;;;;3.75;2.20;;;;;;;-0.97;58.59;100066.22;4932955;29;20143;-79
2022/03/22 05:02:15;;;;;;;2.60;1.88;;;;;;;-1.00;58.52;100058.41;4916435;29;20484;-83
2022/03/22 05:04:41;;;;;;;2.03;1.70;;;;;;;-0.88;58.73;100034.53;4918512;29;20086;-83
2022/03/22 05:07:07;;;;;;;3.40;1.90;;;;;;;-0.74;58.00;100055.22;4917582;29;20505;-90
2022/03/22 05:09:34;;;;;;;3.40;1.63;;;;;;;-0.72;57.66;100058.66;4949301;29;20044;-87
2022/03/22 05:12:02;;;;;;;4.75;1.60;;;;;;;-0.66;57.44;100063.78;4932827;29;20527;-84
2022/03/22 05:14:29;;;;;;;2.22;1.90;;;;;;;-0.73;57.09;100054.31;4948940;29;20040;-85
2022/03/22 05:16:58;;;;;;;4.55;1.80;;;;;;;-0.79;57.24;100067.56;4917876;29;20071;-87
2022/03/22 05:19:25;;;;;;;2.70;2.08;;;;;;;-0.81;57.78;100065.00;4933443;29;20106;-89
2022/03/22 05:21:52;;;;;;;2.30;1.60;;;;;;;-0.81;57.32;100070.25;4952337;29;20135;-93
2022/03/22 05:24:19;;;;;;;2.85;1.73;;;;;;;-0.45;56.88;100072.06;4935654;29;20067;-88
2022/03/22 05:26:46;;;;;;;1.67;1.50;;;;;;;-0.35;56.69;100084.94;4926622;29;20075;-86
2022/03/22 05:29:13;;;;;;;4.13;1.98;;;;;;;-0.20;55.74;100091.59;4916657;29;20103;-86
2022/03/22 05:31:40;;;;;;;5.47;2.10;;;;;;;-0.35;55.99;100076.19;4948499;29;20051;-87
2022/03/22 05:34:06;;;;;;;2.55;2.10;;;;;;;-0.28;55.54;100075.16;4911126;29;20075;-91
2022/03/22 05:36:32;;;;;;;3.97;2.20;;;;;;;0.07;55.54;100086.56;4961557;28;20446;-86
2022/03/22 05:38:59;;;;;;;2.45;1.98;;;;;;;0.05;55.00;100089.22;4946186;29;20063;-88
2022/03/22 05:41:24;;;;;;;1.83;1.70;;;;;;;-0.11;54.87;100085.28;4930196;29;20042;-86
2022/03/22 05:43:51;;;;;;;2.70;2.22;;;;;;;0.11;54.64;100096.94;4944886;29;20047;-89
2022/03/22 05:46:17;;;;;;;5.05;2.00;;;;;;;0.19;54.34;100091.53;4929962;29;20066;-86
2022/03/22 05:48:44;;;;;;;8.77;2.08;;;;;;;0.22;54.15;100094.91;4928793;29;20111;-84
2022/03/22 05:51:10;;;;;;;8.82;2.42;;;;;;;0.54;54.17;100095.84;4928915;29;20051;-88
2022/03/22 05:53:37;;;;;;;2.90;2.17;;;;;;;0.44;53.46;100103.09;4947486;28;20142;-88
2022/03/22 05:56:03;;;;;;;4.07;1.83;;;;;;;0.45;53.51;100101.31;4928447;29;20046;-85
2022/03/22 05:58:29;;;;;;;2.30;1.70;;;;;;;0.26;53.19;100098.31;4944808;29;20039;-84
2022/03/22 06:00:55;;;;;;;4.22;1.77;;;;;;;0.42;53.60;100101.44;4945232;29;20090;-90
2022/03/22 06:03:22;;;;;;;3.47;2.20;;;;;;;0.71;53.13;100111.16;4914877;29;20047;-83
2022/03/22 06:05:50;;;;;;;3.67;2.55;;;;;;;0.78;52.25;100106.59;4944489;29;20518;-84
2022/03/22 06:08:16;;;;;;;3.10;2.00;;;;;;;0.44;52.59;100116.25;4937100;29;20825;-87
2022/03/22 06:10:42;;;;;;;5.88;2.08;;;;;;;0.33;52.89;100109.56;4936632;29;20183;-85
2022/03/22 06:13:08;;;;;;;3.92;2.50;;;;;;;0.29;53.65;100107.91;4937565;29;20075;-88
2022/03/22 06:15:34;;;;;;;4.80;2.15;;;;;;;0.44;53.34;100120.66;4935432;29;20504;-85
2022/03/22 06:18:02;;;;;;;8.10;2.25;;;;;;;0.76;53.33;100118.94;4934776;29;20510;-85
2022/03/22 06:20:31;;;;;;;8.00;2.08;;;;;;;1.20;52.47;100121.19;4936833;29;20428;-82
2022/03/22 06:22:58;;;;;;;5.25;2.05;;;;;;;1.69;52.14;100119.69;4943622;29;20061;-91
2022/03/22 06:25:26;;;;;;;3.15;2.13;;;;;;;1.97;50.51;100118.81;4945923;28;20055;-83
2022/03/22 06:27:53;;;;;;;3.35;2.08;;;;;;;2.01;49.92;100125.69;4925222;29;20043;-83
2022/03/22 06:30:20;;;;;;;2.63;2.10;;;;;;;1.92;49.37;100123.38;4927852;29;20561;-87
2022/03/22 06:32:52;;;;;;;11.25;2.03;;;;;;;1.78;48.51;100125.59;4961860;28;20130;-86
2022/03/22 06:35:23;;;;;;;3.25;1.77;;;;;;;1.21;49.38;100133.44;4945855;29;20502;-89
2022/03/22 06:37:50;;;;;;;11.95;2.15;;;;;;;0.51;51.25;100129.25;4942373;28;20050;-87
2022/03/22 06:40:18;;;;;;;3.28;2.35;;;;;;;0.88;51.39;100134.38;4921440;29;20079;-80
2022/03/22 06:42:46;;;;;;;4.22;2.65;;;;;;;0.87;50.88;100137.94;4918864;29;20480;-78
2022/03/22 06:45:12;;;;;;;2.97;1.90;;;;;;;0.67;51.04;100135.81;4902507;29;20071;-84
2022/03/22 06:47:40;;;;;;;3.33;2.00;;;;;;;0.63;51.20;100144.72;4918778;29;20412;-77
2022/03/22 06:50:12;;;;;;;6.70;1.60;;;;;;;0.32;51.56;100150.75;4919203;29;20044;-80
2022/03/22 06:52:38;;;;;;;3.35;2.05;;;;;;;0.16;52.55;100150.28;4903444;29;20566;-80
2022/03/22 06:55:06;;;;;;;2.40;1.95;;;;;;;0.28;52.27;100149.13;4934168;29;20051;-79
2022/03/22 06:57:32;;;;;;;1.92;1.60;;;;;;;0.25;52.23;100146.56;4935519;29;20044;-80
2022/03/22 07:00:00;;;;;;;2.33;2.13;;;;;;;0.29;52.64;100152.59;4934744;29;20051;-83
2022/03/22 07:02:26;;;;;;;2.42;1.73;;;;;;;0.72;51.96;100160.28;4918375;29;20046;-82
2022/03/22 07:04:52;;;;;;;2.25;2.00;;;;;;;0.60;50.94;100156.19;4929421;29;20575;-88
2022/03/22 07:07:19;;;;;;;5.53;2.40;;;;;;;0.82;51.11;100148.56;4918519;29;20177;-92
2022/03/22 07:09:45;;;;;;;4.10;1.80;;;;;;;0.98;50.50;100159.56;4900107;29;20118;-78
2022/03/22 07:12:13;;;;;;;4.82;2.40;;;;;;;1.24;50.36;100157.94;4931065;29;20056;-85
2022/03/22 07:14:40;;;;;;;4.60;2.42;;;;;;;1.25;49.69;100162.31;4901591;29;20248;-89
2022/03/22 07:17:10;;;;;;;3.13;1.90;;;;;;;1.23;49.80;100154.44;4936951;29;20059;-88
2022/03/22 07:19:36;;;;;;;;;;;;;;;1.40;49.42;100162.72;4937982;29;20044;-80
2022/03/22 07:22:03;;;;;;;3.38;2.25;;;;;;;1.20;49.76;100171.22;4938010;29;19926;-80
2022/03/22 07:24:29;;;;;;;1.95;1.77;;;;;;;1.17;49.41;100173.94;4929122;29;20080;-84
2022/03/22 07:26:55;;;;;;;2.92;2.63;;;;;;;1.16;50.17;100166.91;4941910;29;20044;-78
2022/03/22 07:29:21;;;;;;;4.13;2.50;;;;;;;1.38;50.25;100166.31;4932035;29;20048;-84
2022/03/22 07:31:48;;;;;;;7.85;2.92;;;;;;;1.58;49.72;100158.69;4932374;29;20044;-83
2022/03/22 07:34:16;;;;;;;2.95;2.33;;;;;;;2.05;48.38;100158.09;4930993;29;20130;-84
2022/03/22 07:36:44;;;;;;;2.90;2.60;;;;;;;1.91;48.02;100169.09;4932150;29;20056;-79
2022/03/22 07:39:11;;;;;;;4.05;2.92;;;;;;;2.08;48.33;100163.28;4930986;29;20347;-81
2022/03/22 07:41:38;;;;;;;3.22;2.53;;;;;;;1.91;47.89;100177.00;4914896;29;20571;-80
2022/03/22 07:44:05;;;;;;;2.08;1.88;;;;;;;1.77;48.19;100169.53;4915777;29;20048;-83
2022/03/22 07:46:33;;;;;;;2.30;2.10;;;;;;;1.87;48.11;100164.81;4933648;29;20092;-81
2022/03/22 07:52:58;;;;;;;2.35;1.73;;;;;;;1.45;48.61;100167.84;4915995;29;20095;-79
2022/03/22 07:54:31;;;;;;;3.50;1.50;;;;;;;0.68;50.83;100170.00;4915603;29;20048;-82
2022/03/22 07:56:57;;;;;;;4.18;2.00;;;;;;;0.41;51.61;100168.06;4930741;29;20063;-80
2022/03/22 07:59:25;;;;;;;2.78;2.08;;;;;;;0.76;51.02;100171.56;4915091;29;20408;-79
2022/03/22 08:01:51;;;;;;;2.72;2.05;;;;;;;0.84;50.85;100169.59;4930561;29;20051;-85
2022/03/22 08:04:17;;;;;;;3.10;2.33;;;;;;;0.90;50.70;100170.31;4915527;29;20050;-79
2022/03/22 08:06:43;;;;;;;3.78;3.00;;;;;;;1.33;50.91;100157.69;4930474;29;20111;-81
2022/03/22 08:09:09;;;;;;;4.13;2.80;;;;;;;1.90;49.59;100160.31;4915754;29;20052;-79
2022/03/22 08:11:36;;;;;;;7.65;2.55;;;;;;;2.22;48.29;100168.09;4931780;29;20131;-89
2022/03/22 08:14:04;;;;;;;4.30;2.55;;;;;;;2.07;47.54;100170.34;4897996;29;20047;-87
2022/03/22 08:16:30;;;;;;;3.67;2.22;;;;;;;1.99;48.14;100168.84;4933394;29;20047;-81
2022/03/22 08:18:56;;;;;;;3.00;2.63;;;;;;;2.01;48.09;100173.16;4938022;29;20106;-79
2022/03/22 08:21:22;;;;;;;4.10;2.70;;;;;;;2.16;48.15;100177.94;4933314;29;20051;-85
2022/03/22 08:23:48;;;;;;;2.78;2.45;;;;;;;1.99;48.21;100161.78;4932367;29;20066;-82
2022/03/22 08:26:14;;;;;;;2.47;1.88;;;;;;;2.51;47.21;100173.28;4956230;29;20522;-80
2022/03/22 08:28:43;;;;;;;2.97;2.35;;;;;;;2.64;47.26;100166.69;4956706;29;20145;-81
2022/03/22 08:31:11;;;;;;;2.55;2.10;;;;;;;2.49;46.86;100172.47;4955831;29;20102;-81
2022/03/22 08:33:37;;;;;;;4.05;2.83;;;;;;;2.73;46.63;100177.84;4957356;29;20522;-80
2022/03/22 08:36:04;;;;;;;2.85;1.88;;;;;;;2.42;46.95;100173.59;4908012;29;20071;-81
2022/03/22 08:38:30;;;;;;;4.05;2.95;;;;;;;2.42;47.46;100173.59;4957210;29;20054;-83
2022/03/22 08:40:56;;;;;;;3.58;2.30;;;;;;;2.74;46.75;100184.81;4956230;29;20043;-81
2022/03/22 08:43:26;;;;;;;2.83;2.25;;;;;;;2.51;47.17;100177.69;4970672;28;20055;-81
2022/03/22 08:45:53;;;;;;;2.80;2.45;;;;;;;2.40;47.02;100180.69;4956513;28;20503;-79
2022/03/22 08:48:19;;;;;;;2.83;2.17;;;;;;;2.33;47.02;100179.16;4952380;29;20043;-80
2022/03/22 08:50:49;;;;;;;2.63;2.25;;;;;;;2.23;47.12;100164.56;4936622;29;20126;-80
2022/03/22 08:53:17;;;;;;;4.50;3.00;;;;;;;2.33;47.22;100179.16;4952339;28;20515;-82
2022/03/22 08:55:47;;;;;;;3.22;2.75;;;;;;;2.57;46.96;100173.06;4952582;29;20055;-79
2022/03/22 08:58:15;;;;;;;3.40;2.47;;;;;;;2.96;46.16;100174.38;4920732;29;20074;-80
2022/03/22 09:00:48;;;;;;;4.70;2.95;;;;;;;3.15;46.66;100178.94;4936226;29;20048;-81
2022/03/22 09:03:14;;;;;;;4.45;2.58;;;;;;;3.35;45.43;100177.38;4937413;29;20243;-83
2022/03/22 09:08:26;;;;;;;3.45;2.60;;;;;;;2.88;46.41;100175.50;4936454;29;20071;-81
2022/03/22 09:10:52;;;;;;;3.85;2.40;;;;;;;3.23;45.35;100183.09;4937788;29;20455;-79
2022/03/22 09:13:19;;;;;;;10.43;2.75;;;;;;;2.84;45.72;100181.81;4937246;29;20044;-81
2022/03/22 09:15:46;;;;;;;2.72;2.15;;;;;;;2.42;46.59;100174.47;4952171;29;20055;-79
2022/03/22 09:18:16;;;;;;;6.55;2.40;;;;;;;2.14;47.28;100178.91;4952212;29;20146;-80
2022/03/22 09:20:44;;;;;;;4.03;2.35;;;;;;;1.94;48.15;100164.56;4936211;29;20455;-80
2022/03/22 09:23:12;;;;;;;2.42;2.05;;;;;;;1.92;47.78;100173.47;4937336;29;20044;-82
2022/03/22 09:25:40;;;;;;;4.47;3.00;;;;;;;1.99;48.74;100153.88;4935692;29;20530;-80
2022/03/22 09:28:07;;;;;;;2.97;2.47;;;;;;;2.40;47.58;100154.31;4935692;29;20079;-80
2022/03/22 09:30:35;;;;;;;2.55;2.13;;;;;;;2.53;47.18;100160.03;4936425;29;20051;-80
2022/03/22 09:33:04;;;;;;;3.72;2.67;;;;;;;2.40;47.07;100149.03;4951714;28;20055;-79
2022/03/22 09:35:30;;;;;;;8.23;2.85;;;;;;;2.78;47.40;100155.63;4936160;29;20055;-80
2022/03/22 09:37:57;;;;;;;4.82;2.65;;;;;;;3.15;46.36;100143.75;4952066;28;20059;-82
2022/03/22 09:40:23;;;;;;;2.97;2.67;;;;;;;3.61;45.65;100157.84;4951554;29;20500;-80
2022/03/22 09:42:50;;;;;;;4.03;1.67;;;;;;;3.24;45.00;100159.28;4951494;29;20047;-80
2022/03/22 09:45:38;;;;;;;2.63;2.40;;;;;;;3.27;45.60;100158.28;4935799;29;20107;-79
2022/03/22 09:48:04;;;;;;;2.17;1.90;;;;;;;3.63;44.46;100137.53;4936113;29;20474;-79
2022/03/22 09:53:16;;;;;;;2.88;2.47;;;;;;;3.63;44.46;100150.75;4935197;29;20191;-80
2022/03/22 09:55:43;;;;;;;1.70;1.60;;;;;;;3.60;44.56;100157.00;4937260;29;20047;-79
2022/03/22 09:58:09;;;;;;;7.60;2.38;;;;;;;3.88;43.92;100129.50;4941052;29;20051;-79
2022/03/22 10:00:35;;;;;;;2.15;1.95;;;;;;;3.77;43.02;100137.00;4944588;29;20048;-79
2022/03/22 10:03:04;;;;;;;2.47;1.80;;;;;;;3.52;43.97;100137.09;4951487;29;20078;-80
2022/03/22 10:05:30;;;;;;;3.15;2.47;;;;;;;3.92;43.68;100135.53;4949369;29;20099;-80
2022/03/22 10:08:03;;;;;;;1.88;1.77;;;;;;;3.12;43.91;100139.44;4946899;29;20067;-80
2022/03/22 10:10:29;;;;;;;4.45;2.00;;;;;;;3.46;44.17;100142.59;4955230;29;20074;-79
2022/03/22 10:12:58;;;;;;;2.08;1.85;;;;;;;3.72;43.32;100139.78;4953482;29;20048;-82
2022/03/22 10:15:35;;;;;;;2.03;1.83;;;;;;;3.78;42.89;100138.72;4936811;29;20495;-82
2022/03/22 10:18:07;;;;;;;3.25;2.00;;;;;;;3.96;42.59;100145.91;4936080;29;20084;-79
2022/03/22 10:20:35;;;;;;;4.65;2.05;;;;;;;3.61;43.57;100160.50;4951647;29;20114;-81
2022/03/22 10:23:02;;;;;;;4.40;1.83;;;;;;;3.43;43.45;100154.16;4935618;29;20126;-81
2022/03/22 10:25:32;;;;;;;2.83;1.70;;;;;;;3.37;43.26;100143.81;4935053;29;20055;-80
2022/03/22 10:28:03;;;;;;;3.17;1.98;;;;;;;3.54;43.52;100162.53;4935030;29;20476;-80
2022/03/22 10:30:30;;;;;;;2.88;2.00;;;;;;;3.98;43.16;100141.41;4950604;28;20521;-79
2022/03/22 10:32:57;;;;;;;2.78;2.00;;;;;;;4.18;42.35;100139.78;4935917;28;20063;-81
2022/03/22 10:35:30;;;;;;;3.03;2.10;;;;;;;4.40;42.09;100127.38;4918989;29;20075;-80
2022/03/22 10:38:02;;;;;;;2.15;1.58;;;;;;;4.83;41.15;100125.50;4934992;29;20051;-80
2022/03/22 10:40:34;;;;;;;3.78;2.33;;;;;;;4.77;40.54;100123.13;4934196;29;20051;-79
2022/03/22 10:43:06;;;;;;;14.52;2.65;;;;;;;5.07;40.49;100119.09;4935958;29;20126;-80
2022/03/22 10:45:50;;;;;;;3.05;1.98;;;;;;;5.08;40.03;100115.53;4950626;29;20158;-80
2022/03/22 10:48:28;;;;;;;3.50;2.10;;;;;;;5.11;39.59;100120.72;4935066;29;20094;-79
2022/03/22 10:50:57;;;;;;;2.40;1.95;;;;;;;5.51;39.63;100118.84;4959309;28;20099;-78
2022/03/22 10:53:23;;;;;;;;;;;;;;;5.93;38.82;100131.03;4934500;29;20102;-79
2022/03/22 10:55:50;;;;;;;2.13;1.92;;;;;;;5.98;37.92;100129.03;4943257;29;19965;-79
2022/03/22 10:58:28;;;;;;;2.08;1.73;;;;;;;6.08;37.46;100124.97;4953659;29;20054;-78
2022/03/22 11:00:55;;;;;;;3.65;1.85;;;;;;;6.08;37.57;100129.44;4954770;29;20047;-79
2022/03/22 11:03:24;;;;;;;4.85;1.45;;;;;;;5.85;37.67;100125.22;4954936;29;20051;-81
2022/03/22 11:05:51;;;;;;;;;;;;;;;5.43;38.42;100121.00;4969934;28;20491;-80
2022/03/22 11:08:19;;;;;;;4.25;1.73;;;;;;;5.43;38.41;100123.66;4953127;29;20298;-78
2022/03/22 11:10:46;;;;;;;1.95;1.73;;;;;;;5.45;39.35;100103.22;4938082;29;20146;-88
2022/03/22 11:13:12;;;;;;;1.85;1.63;;;;;;;5.35;39.63;100109.91;4955169;29;20133;-77
2022/03/22 11:15:44;;;;;;;4.32;1.95;;;;;;;4.94;38.81;100107.34;4959919;29;20518;-84
2022/03/22 11:18:12;;;;;;;3.55;2.17;;;;;;;4.89;39.00;100093.47;4951299;29;20043;-80
2022/03/22 11:20:51;;;;;;;5.10;1.77;;;;;;;4.95;38.72;100102.91;4951653;29;20048;-81
2022/03/22 11:23:22;;;;;;;11.93;2.33;;;;;;;5.50;38.01;100111.84;4934390;29;20162;-79
2022/03/22 11:25:49;;;;;;;4.72;2.22;;;;;;;5.84;37.64;100105.78;4931291;29;20095;-81
2022/03/22 11:28:19;;;;;;;4.82;2.03;;;;;;;7.00;36.45;100099.06;4915238;29;20048;-82
2022/03/22 11:30:47;;;;;;;2.20;2.00;;;;;;;7.35;35.04;100093.63;4899643;29;20491;-81
2022/03/22 11:36:17;;;;;;;2.65;2.20;;;;;;;7.99;34.29;100075.84;4919267;29;20051;-83
2022/03/22 11:38:47;;;;;;;2.88;2.17;;;;;;;8.62;34.02;100077.50;4918119;29;20626;-84
2022/03/22 11:44:33;;;;;;;3.20;1.73;;;;;;;8.84;32.35;100077.91;4920856;29;20055;-83
2022/03/22 11:47:14;;;;;;;3.10;2.17;;;;;;;8.72;32.37;100086.63;4920355;29;20075;-82
2022/03/22 11:49:57;;;;;;;3.35;2.50;;;;;;;8.68;33.01;100077.13;4933165;29;20051;-83
2022/03/22 11:52:36;;;;;;;2.20;1.90;;;;;;;9.10;31.82;100083.44;4932437;29;20044;-84
2022/03/22 11:55:09;;;;;;;2.92;1.63;;;;;;;8.84;32.11;100077.91;4925543;29;20043;-82
2022/03/22 11:57:50;;;;;;;3.70;1.95;;;;;;;9.14;32.83;100088.50;4945425;29;20495;-84
2022/03/22 12:00:42;;;;;;;3.10;1.63;;;;;;;9.12;30.85;100092.22;4945708;29;20415;-83
2022/03/22 12:03:09;;;;;;;7.82;2.28;;;;;;;8.33;32.65;100072.06;4927483;29;20418;-84
2022/03/22 12:05:35;;;;;;;1.60;1.50;;;;;;;7.78;33.27;100092.09;4963266;28;20061;-84
2022/03/22 12:08:10;;;;;;;3.20;1.80;;;;;;;7.30;34.12;100080.59;4962189;28;20055;-84
2022/03/22 12:10:36;;;;;;;1.60;1.50;;;;;;;7.48;34.33;100075.16;4961333;28;20043;-84
2022/03/22 12:13:02;;;;;;;7.97;1.88;;;;;;;7.91;33.92;100081.59;4961955;28;20047;-83
2022/03/22 12:15:29;;;;;;;4.25;1.98;;;;;;;7.93;33.61;100090.34;4926904;29;20126;-83